createdAt,value
2023-01-30T00:01:46.860Z,6.93
2023-01-30T00:04:16.160Z,8.30
2023-01-30T00:06:43.863Z,13.17
2023-01-30T00:09:15.057Z,18.17
2023-01-30T00:11:42.630Z,15.00
2023-01-30T00:14:09.459Z,10.23
2023-01-30T00:16:36.377Z,9.67
2023-01-30T00:19:03.231Z,11.30
2023-01-30T00:21:30.183Z,10.03
2023-01-30T00:23:56.835Z,10.70
2023-01-30T00:26:23.489Z,14.10
2023-01-30T00:28:50.618Z,13.50
2023-01-30T00:31:17.309Z,16.20
2023-01-30T00:33:44.210Z,16.90
2023-01-30T00:36:11.269Z,15.80
2023-01-30T00:38:37.996Z,16.43
2023-01-30T00:41:05.243Z,11.17
2023-01-30T00:43:50.826Z,8.53
2023-01-30T00:46:51.972Z,7.43
2023-01-30T00:49:19.044Z,9.10
2023-01-30T00:51:46.673Z,8.40
2023-01-30T00:54:13.460Z,9.37
2023-01-30T00:56:40.364Z,10.60
2023-01-30T00:59:07.092Z,10.10
2023-01-30T01:01:34.480Z,10.40
2023-01-30T01:04:01.231Z,7.87
2023-01-30T01:06:27.919Z,8.03
2023-01-30T01:08:54.714Z,6.93
2023-01-30T01:11:24.743Z,9.03
2023-01-30T01:13:56.891Z,33.47
2023-01-30T01:16:24.956Z,12.70
2023-01-30T01:18:52.103Z,10.13
2023-01-30T01:21:20.379Z,13.13
2023-01-30T01:23:56.858Z,13.37
2023-01-30T01:26:24.088Z,11.20
2023-01-30T01:28:54.896Z,11.57
2023-01-30T01:31:22.372Z,9.60
2023-01-30T01:33:49.099Z,14.73
2023-01-30T01:36:29.388Z,13.33
2023-01-30T01:39:03.590Z,11.83
2023-01-30T01:41:30.740Z,14.67
2023-01-30T01:44:12.853Z,9.93
2023-01-30T01:46:53.592Z,7.53
2023-01-30T01:49:25.073Z,8.63
2023-01-30T01:52:03.962Z,8.67
2023-01-30T01:54:42.166Z,8.50
2023-01-30T01:57:15.465Z,11.33
2023-01-30T01:59:50.705Z,10.43
2023-01-30T02:02:17.516Z,10.03
2023-01-30T02:05:03.474Z,11.50
2023-01-30T02:07:36.471Z,11.23
2023-01-30T02:10:04.488Z,11.73
2023-01-30T02:12:31.549Z,10.07
2023-01-30T02:15:00.418Z,10.10
2023-01-30T02:17:27.369Z,8.93
2023-01-30T02:20:12.653Z,9.27
2023-01-30T02:23:09.967Z,15.03
2023-01-30T02:26:00.659Z,11.57
2023-01-30T02:28:50.493Z,10.07
2023-01-30T02:31:32.487Z,10.80
2023-01-30T02:34:35.722Z,15.60
2023-01-30T02:37:12.119Z,16.67
2023-01-30T02:39:53.806Z,14.30
2023-01-30T02:43:02.081Z,13.00
2023-01-30T02:45:36.702Z,9.70
2023-01-30T02:48:06.258Z,9.63
2023-01-30T02:50:59.046Z,10.47
2023-01-30T02:53:26.289Z,12.10
2023-01-30T02:55:53.063Z,11.63
2023-01-30T02:58:23.786Z,7.17
2023-01-30T03:01:16.525Z,7.47
2023-01-30T03:03:55.266Z,9.03
2023-01-30T03:06:34.736Z,11.20
2023-01-30T03:09:43.064Z,10.93
2023-01-30T03:12:15.978Z,10.33
2023-01-30T03:14:49.219Z,9.90
2023-01-30T03:17:18.585Z,11.10
2023-01-30T03:19:45.533Z,13.30
2023-01-30T03:22:12.186Z,15.20
2023-01-30T03:24:38.974Z,16.73
2023-01-30T03:27:12.963Z,16.63
2023-01-30T03:29:41.342Z,14.50
2023-01-30T03:32:08.113Z,12.53
2023-01-30T03:34:34.801Z,11.13
2023-01-30T03:37:01.724Z,12.33
2023-01-30T03:39:28.527Z,14.10
2023-01-30T03:41:55.354Z,9.63
2023-01-30T03:44:22.297Z,9.00
2023-01-30T03:46:49.112Z,9.97
2023-01-30T03:49:15.867Z,10.90
2023-01-30T03:51:42.634Z,14.67
2023-01-30T03:54:09.386Z,22.13
2023-01-30T03:56:36.039Z,11.83
2023-01-30T03:59:02.848Z,15.07
2023-01-30T04:01:29.542Z,16.70
2023-01-30T04:03:56.220Z,11.27
2023-01-30T04:06:22.900Z,12.23
2023-01-30T04:08:53.576Z,12.20
2023-01-30T04:11:21.198Z,11.70
2023-01-30T04:13:47.832Z,13.23
2023-01-30T04:16:20.234Z,13.07
2023-01-30T04:18:46.933Z,13.97
2023-01-30T04:21:14.112Z,16.27
2023-01-30T04:23:41.789Z,19.10
2023-01-30T04:26:09.013Z,20.43
2023-01-30T04:28:36.299Z,21.27
2023-01-30T04:31:03.451Z,21.83
2023-01-30T04:33:30.271Z,20.10
2023-01-30T04:36:00.123Z,18.93
2023-01-30T04:38:28.299Z,20.40
2023-01-30T04:40:56.599Z,18.93
2023-01-30T04:43:25.095Z,23.57
2023-01-30T04:45:52.259Z,26.37
2023-01-30T04:48:20.079Z,31.77
2023-01-30T04:50:48.918Z,36.50
2023-01-30T04:53:16.774Z,27.80
2023-01-30T04:55:43.745Z,30.00
2023-01-30T04:58:10.791Z,23.03
2023-01-30T05:00:37.649Z,26.47
2023-01-30T05:03:04.476Z,27.80
2023-01-30T05:05:31.132Z,29.70
2023-01-30T05:07:57.849Z,29.83
2023-01-30T05:10:24.623Z,28.30
2023-01-30T05:12:52.356Z,43.17
2023-01-30T05:15:19.356Z,39.60
2023-01-30T05:17:46.227Z,42.20
2023-01-30T05:20:14.184Z,43.70
2023-01-30T05:22:40.858Z,43.57
2023-01-30T05:25:07.969Z,44.53
2023-01-30T05:27:34.725Z,49.93
2023-01-30T05:30:01.501Z,47.97
2023-01-30T05:32:30.540Z,48.13
2023-01-30T05:34:57.424Z,50.97
2023-01-30T05:37:25.006Z,37.27
2023-01-30T05:39:51.965Z,35.47
2023-01-30T05:42:18.968Z,32.33
2023-01-30T05:44:46.153Z,35.10
2023-01-30T05:47:13.227Z,38.80
2023-01-30T05:49:40.027Z,42.27
2023-01-30T05:52:06.748Z,35.43
2023-01-30T05:54:35.256Z,29.33
2023-01-30T05:57:02.142Z,29.50
2023-01-30T05:59:28.837Z,28.50
2023-01-30T06:01:55.481Z,29.67
2023-01-30T06:04:22.310Z,41.83
2023-01-30T06:06:50.897Z,46.00
2023-01-30T06:09:17.758Z,43.97
2023-01-30T06:11:44.439Z,43.10
2023-01-30T06:14:11.330Z,53.27
2023-01-30T06:16:38.115Z,55.57
2023-01-30T06:19:04.802Z,45.43
2023-01-30T06:21:31.620Z,42.00
2023-01-30T06:23:58.610Z,44.60
2023-01-30T06:26:25.384Z,49.40
2023-01-30T06:28:52.158Z,44.87
2023-01-30T06:31:19.265Z,47.00
2023-01-30T06:33:46.125Z,55.30
2023-01-30T06:36:12.818Z,50.60
2023-01-30T06:38:39.504Z,50.57
2023-01-30T06:41:07.448Z,45.23
2023-01-30T06:43:34.121Z,44.60
2023-01-30T06:46:01.009Z,49.03
2023-01-30T06:48:27.846Z,48.43
2023-01-30T06:50:54.581Z,44.60
2023-01-30T06:53:22.567Z,60.27
2023-01-30T06:55:49.329Z,49.37
2023-01-30T06:58:16.036Z,48.27
2023-01-30T07:00:43.602Z,48.93
2023-01-30T07:03:15.326Z,49.10
2023-01-30T07:05:43.796Z,51.90
2023-01-30T07:08:11.072Z,45.43
2023-01-30T07:10:38.970Z,45.27
2023-01-30T07:13:06.815Z,37.90
2023-01-30T07:15:33.856Z,37.70
2023-01-30T07:18:02.327Z,35.77
2023-01-30T07:20:31.339Z,41.13
2023-01-30T07:22:58.165Z,44.53
2023-01-30T07:25:26.480Z,47.43
2023-01-30T07:28:01.451Z,44.70
2023-01-30T07:30:30.031Z,45.43
2023-01-30T07:32:58.480Z,52.23
2023-01-30T07:35:27.054Z,57.47
2023-01-30T07:37:53.881Z,67.03
2023-01-30T07:40:21.429Z,66.27
2023-01-30T07:43:02.695Z,62.77
2023-01-30T07:45:35.866Z,55.30
2023-01-30T07:48:02.951Z,50.17
2023-01-30T07:50:29.807Z,65.20
2023-01-30T07:52:56.546Z,59.57
2023-01-30T07:55:24.869Z,61.50
2023-01-30T07:57:51.509Z,58.77
2023-01-30T08:00:19.021Z,61.07
2023-01-30T08:02:45.926Z,57.10
2023-01-30T08:05:12.614Z,58.63
2023-01-30T08:07:39.223Z,52.77
2023-01-30T08:10:06.894Z,55.83
2023-01-30T08:12:33.561Z,58.30
2023-01-30T08:15:00.551Z,59.60
2023-01-30T08:17:27.346Z,59.03
2023-01-30T08:19:54.149Z,57.57
2023-01-30T08:22:20.934Z,52.30
2023-01-30T08:24:47.608Z,50.83
2023-01-30T08:27:14.296Z,36.13
2023-01-30T08:29:41.330Z,38.97
2023-01-30T08:32:08.035Z,27.97
2023-01-30T08:34:36.036Z,30.87
2023-01-30T08:37:03.524Z,31.03
2023-01-30T08:39:30.211Z,32.73
2023-01-30T08:41:57.228Z,25.03
2023-01-30T08:44:23.926Z,23.23
2023-01-30T08:46:50.611Z,24.23
2023-01-30T08:49:17.454Z,23.83
2023-01-30T08:51:44.307Z,17.33
2023-01-30T08:54:11.093Z,20.70
2023-01-30T08:56:37.809Z,22.40
2023-01-30T08:59:04.454Z,22.20
2023-01-30T09:01:31.318Z,27.10
2023-01-30T09:03:58.114Z,28.33
2023-01-30T09:06:26.273Z,29.33
2023-01-30T09:08:53.056Z,18.70
2023-01-30T09:11:19.805Z,20.93
2023-01-30T09:13:48.755Z,21.20
2023-01-30T09:16:16.442Z,26.13
2023-01-30T09:18:44.856Z,24.30
2023-01-30T09:21:13.294Z,21.73
2023-01-30T09:23:40.317Z,24.77
2023-01-30T09:26:09.336Z,23.73
2023-01-30T09:28:36.181Z,24.60
2023-01-30T09:31:03.885Z,23.37
2023-01-30T09:33:30.992Z,26.73
2023-01-30T09:35:57.753Z,20.57
2023-01-30T09:38:24.431Z,15.53
2023-01-30T09:41:00.106Z,18.87
2023-01-30T09:43:34.130Z,19.27
2023-01-30T09:46:13.034Z,14.00
2023-01-30T09:48:46.975Z,14.53
2023-01-30T09:51:32.521Z,16.67
2023-01-30T09:54:24.493Z,18.93
2023-01-30T09:57:24.881Z,27.20
2023-01-30T10:00:06.117Z,23.37
2023-01-30T10:02:47.699Z,25.40
2023-01-30T10:05:14.652Z,23.47
2023-01-30T10:07:56.729Z,26.77
2023-01-30T10:10:38.604Z,14.47
2023-01-30T10:13:11.160Z,14.30
2023-01-30T10:15:50.026Z,12.87
2023-01-30T10:18:51.566Z,16.33
2023-01-30T10:21:50.745Z,18.27
2023-01-30T10:25:15.674Z,20.83
2023-01-30T10:27:50.574Z,17.13
2023-01-30T10:30:18.485Z,16.67
2023-01-30T10:32:51.550Z,20.37
2023-01-30T10:35:30.171Z,13.63
2023-01-30T10:38:15.429Z,15.13
2023-01-30T10:40:50.823Z,17.93
2023-01-30T10:43:24.027Z,17.37
2023-01-30T10:45:55.804Z,17.60
2023-01-30T10:48:49.980Z,15.10
2023-01-30T10:51:25.319Z,20.85
2023-01-30T10:54:03.481Z,13.38
2023-01-30T10:56:48.878Z,13.50
2023-01-30T10:59:50.287Z,11.90
2023-01-30T11:02:26.274Z,11.47
2023-01-30T11:05:03.733Z,13.77
2023-01-30T11:07:32.177Z,13.93
2023-01-30T11:09:59.942Z,15.33
2023-01-30T11:12:27.417Z,15.37
2023-01-30T11:15:04.689Z,10.67
2023-01-30T11:17:37.596Z,14.97
2023-01-30T11:20:20.773Z,17.07
2023-01-30T11:22:52.443Z,13.57
2023-01-30T11:25:23.075Z,19.03
2023-01-30T11:28:05.678Z,18.07
2023-01-30T11:30:36.712Z,14.67
2023-01-30T11:33:17.083Z,27.47
2023-01-30T11:35:54.392Z,18.13
2023-01-30T11:38:25.726Z,13.30
2023-01-30T11:41:18.005Z,15.10
2023-01-30T11:43:44.911Z,14.70
2023-01-30T11:46:16.007Z,14.47
2023-01-30T11:49:02.971Z,14.67
2023-01-30T11:51:47.057Z,13.93
2023-01-30T11:54:20.243Z,12.10
2023-01-30T11:56:52.986Z,13.10
2023-01-30T11:59:31.899Z,24.83
2023-01-30T12:02:35.801Z,17.77
2023-01-30T12:05:06.304Z,20.80
2023-01-30T12:07:35.612Z,15.13
2023-01-30T12:10:26.332Z,20.73
2023-01-30T12:12:55.323Z,16.00
2023-01-30T12:15:35.301Z,14.43
2023-01-30T12:18:01.915Z,20.03
2023-01-30T12:20:55.761Z,36.37
2023-01-30T12:23:52.685Z,19.87
2023-01-30T12:26:37.941Z,12.93
2023-01-30T12:29:55.249Z,13.20
2023-01-30T12:32:26.453Z,23.33
2023-01-30T12:34:53.296Z,18.20
2023-01-30T12:37:35.495Z,22.30
2023-01-30T12:40:17.643Z,20.03
2023-01-30T12:43:02.940Z,22.13
2023-01-30T12:45:34.730Z,17.50
2023-01-30T12:48:07.629Z,17.47
2023-01-30T12:50:49.589Z,16.30
2023-01-30T12:53:43.214Z,26.63
2023-01-30T12:56:15.657Z,22.03
2023-01-30T12:58:50.555Z,18.07
2023-01-30T13:01:32.756Z,15.70
2023-01-30T13:04:46.960Z,17.77
2023-01-30T13:07:33.241Z,16.33
2023-01-30T13:10:21.266Z,22.67
2023-01-30T13:13:07.178Z,25.17
2023-01-30T13:15:46.097Z,23.90
2023-01-30T13:18:22.197Z,20.27
2023-01-30T13:20:55.201Z,24.27
2023-01-30T13:23:41.538Z,20.93
2023-01-30T13:26:19.641Z,21.03
2023-01-30T13:28:53.345Z,21.37
2023-01-30T13:31:24.866Z,19.83
2023-01-30T13:34:04.621Z,18.20
2023-01-30T13:37:01.082Z,18.23
2023-01-30T13:39:54.243Z,27.83
2023-01-30T13:42:52.674Z,23.60
2023-01-30T13:45:27.169Z,26.77
2023-01-30T13:48:16.883Z,22.30
2023-01-30T13:50:43.562Z,26.73
2023-01-30T13:53:28.292Z,28.07
2023-01-30T13:56:39.606Z,23.67
2023-01-30T13:59:21.746Z,36.93
2023-01-30T14:02:04.182Z,29.50
2023-01-30T14:04:40.278Z,25.27
2023-01-30T14:07:13.102Z,22.27
2023-01-30T14:09:46.822Z,25.07
2023-01-30T14:12:20.248Z,24.00
2023-01-30T14:15:04.308Z,23.43
2023-01-30T14:17:31.259Z,33.87
2023-01-30T14:20:01.779Z,49.30
2023-01-30T14:22:56.635Z,47.97
2023-01-30T14:25:23.300Z,57.00
2023-01-30T14:27:53.111Z,35.57
2023-01-30T14:30:45.606Z,39.97
2023-01-30T14:33:21.520Z,42.83
2023-01-30T14:35:54.275Z,41.73
2023-01-30T14:38:22.300Z,27.33
2023-01-30T14:41:23.865Z,19.73
2023-01-30T14:43:54.381Z,29.40
2023-01-30T14:46:21.334Z,20.60
2023-01-30T14:48:50.096Z,28.43
2023-01-30T14:51:34.722Z,37.17
2023-01-30T14:54:14.654Z,17.45
2023-01-30T14:57:16.039Z,27.43
2023-01-30T14:59:45.778Z,42.37
2023-01-30T15:02:12.538Z,29.80
2023-01-30T15:04:50.550Z,23.13
2023-01-30T15:07:26.395Z,30.50
2023-01-30T15:10:00.467Z,40.83
2023-01-30T15:12:43.023Z,28.63
2023-01-30T15:15:38.973Z,24.93
2023-01-30T15:18:31.757Z,20.17
2023-01-30T15:21:41.742Z,25.57
2023-01-30T15:24:44.744Z,26.53
2023-01-30T15:27:31.753Z,24.00
2023-01-30T15:30:45.432Z,35.70
2023-01-30T15:33:22.937Z,20.33
2023-01-30T15:35:56.439Z,25.77
2023-01-30T15:38:31.865Z,27.83
2023-01-30T15:41:03.118Z,34.13
2023-01-30T15:44:12.029Z,33.57
2023-01-30T15:46:48.524Z,30.87
2023-01-30T15:49:40.297Z,31.87
2023-01-30T15:52:16.195Z,26.00
2023-01-30T15:54:52.401Z,29.03
2023-01-30T15:57:38.604Z,31.07
2023-01-30T16:00:12.070Z,33.33
2023-01-30T16:02:38.973Z,35.63
2023-01-30T16:05:13.492Z,30.30
2023-01-30T16:07:40.246Z,28.98
2023-01-30T16:10:19.648Z,28.77
2023-01-30T16:12:47.939Z,32.03
2023-01-30T16:15:31.002Z,39.57
2023-01-30T16:18:06.981Z,47.43
2023-01-30T16:20:58.902Z,30.00
2023-01-30T16:23:52.949Z,36.60
2023-01-30T16:26:21.978Z,29.50
2023-01-30T16:29:00.729Z,28.73
2023-01-30T16:31:32.862Z,33.03
2023-01-30T16:34:00.450Z,34.10
2023-01-30T16:36:27.125Z,36.83
2023-01-30T16:38:55.330Z,29.57
2023-01-30T16:41:40.311Z,27.37
2023-01-30T16:44:20.794Z,31.75
2023-01-30T16:47:01.136Z,33.47
2023-01-30T16:49:39.056Z,31.53
2023-01-30T16:52:31.504Z,26.97
2023-01-30T16:55:00.938Z,26.80
2023-01-30T16:57:43.839Z,30.87
2023-01-30T17:00:31.993Z,32.47
2023-01-30T17:03:01.974Z,29.97
2023-01-30T17:05:40.933Z,30.53
2023-01-30T17:08:33.242Z,31.03
2023-01-30T17:11:01.544Z,36.03
2023-01-30T17:13:44.743Z,32.83
2023-01-30T17:16:23.494Z,26.33
2023-01-30T17:18:53.962Z,25.13
2023-01-30T17:21:23.349Z,23.17
2023-01-30T17:24:02.805Z,25.00
2023-01-30T17:26:30.450Z,28.77
2023-01-30T17:28:57.355Z,25.50
2023-01-30T17:31:24.183Z,30.07
2023-01-30T17:33:50.878Z,23.37
2023-01-30T17:36:24.365Z,24.73
2023-01-30T17:38:51.674Z,25.60
2023-01-30T17:41:26.285Z,21.93
2023-01-30T17:46:23.538Z,27.13
2023-01-30T17:48:51.882Z,28.70
2023-01-30T17:51:18.587Z,22.60
2023-01-30T17:53:45.342Z,24.97
2023-01-30T17:56:19.647Z,26.03
2023-01-30T17:58:46.380Z,24.70
2023-01-30T18:01:16.229Z,25.63
2023-01-30T18:03:44.873Z,28.43
2023-01-30T18:06:14.387Z,27.50
2023-01-30T18:08:41.835Z,31.27
2023-01-30T18:11:11.792Z,30.00
2023-01-30T18:13:47.921Z,30.13
2023-01-30T18:16:23.465Z,31.90
2023-01-30T18:18:51.285Z,36.57
2023-01-30T18:21:18.282Z,44.20
2023-01-30T18:23:44.982Z,72.87
2023-01-30T18:26:12.863Z,71.83
2023-01-30T18:28:39.911Z,60.83
2023-01-30T18:31:07.019Z,60.13
2023-01-30T18:33:34.250Z,54.67
2023-01-30T18:36:12.745Z,46.10
2023-01-30T18:38:39.494Z,38.30
2023-01-30T18:41:17.919Z,42.30
2023-01-30T18:43:48.240Z,43.17
2023-01-30T18:46:18.840Z,58.50
2023-01-30T18:48:46.694Z,49.03
2023-01-30T18:51:16.142Z,52.43
2023-01-30T18:53:43.649Z,61.87
2023-01-30T18:56:15.575Z,49.23
2023-01-30T18:58:42.837Z,67.80
2023-01-30T19:01:17.562Z,51.43
2023-01-30T19:03:44.699Z,52.83
2023-01-30T19:06:18.747Z,52.20
2023-01-30T19:08:45.843Z,40.30
2023-01-30T19:11:33.869Z,39.90
2023-01-30T19:14:00.687Z,41.27
2023-01-30T19:16:29.721Z,41.97
2023-01-30T19:18:56.785Z,50.17
2023-01-30T19:21:24.690Z,63.57
2023-01-30T19:23:51.851Z,44.27
2023-01-30T19:26:21.369Z,40.20
2023-01-30T19:28:50.079Z,36.53
2023-01-30T19:31:19.092Z,36.83
2023-01-30T19:33:48.406Z,43.20
2023-01-30T19:36:19.185Z,51.80
2023-01-30T19:38:47.426Z,63.13
2023-01-30T19:41:24.438Z,54.40
2023-01-30T19:43:52.660Z,49.33
2023-01-30T19:46:19.751Z,44.77
2023-01-30T19:48:47.640Z,42.67
2023-01-30T19:51:17.132Z,36.57
2023-01-30T19:53:45.652Z,38.30
2023-01-30T19:56:13.563Z,43.57
2023-01-30T19:58:40.891Z,49.00
2023-01-30T20:01:10.127Z,46.00
2023-01-30T20:03:37.836Z,43.23
2023-01-30T20:06:07.315Z,39.07
2023-01-30T20:08:36.476Z,37.90
2023-01-30T20:11:06.279Z,33.17
2023-01-30T20:13:38.882Z,34.23
2023-01-30T20:16:11.864Z,36.37
2023-01-30T20:18:40.233Z,40.97
2023-01-30T20:21:19.843Z,46.30
2023-01-30T20:23:47.782Z,50.37
2023-01-30T20:26:17.471Z,46.27
2023-01-30T20:28:45.058Z,41.47
2023-01-30T20:31:20.418Z,40.43
2023-01-30T20:33:47.587Z,40.20
2023-01-30T20:36:18.716Z,37.70
2023-01-30T20:38:49.098Z,55.07
2023-01-30T20:41:18.924Z,40.53
2023-01-30T20:43:49.522Z,42.93
2023-01-30T20:46:41.644Z,44.37
2023-01-30T20:49:17.192Z,48.33
2023-01-30T20:51:44.516Z,49.37
2023-01-30T20:54:12.976Z,65.20
2023-01-30T20:56:45.753Z,52.43
2023-01-30T20:59:15.842Z,52.97
2023-01-30T21:01:43.257Z,46.33
2023-01-30T21:04:15.708Z,59.17
2023-01-30T21:06:45.688Z,50.93
2023-01-30T21:09:19.264Z,68.23
2023-01-30T21:11:46.721Z,68.53
2023-01-30T21:14:14.143Z,45.70
2023-01-30T21:16:41.160Z,53.27
2023-01-30T21:19:11.241Z,43.63
2023-01-30T21:22:04.538Z,73.03
2023-01-30T21:24:31.260Z,53.80
2023-01-30T21:26:58.205Z,45.57
2023-01-30T21:29:27.304Z,45.30
2023-01-30T21:31:55.671Z,62.53
2023-01-30T21:34:22.950Z,90.33
2023-01-30T21:37:08.089Z,48.77
2023-01-30T21:39:53.465Z,56.50
2023-01-30T21:42:40.490Z,45.37
2023-01-30T21:45:07.815Z,64.67
2023-01-30T21:47:34.524Z,43.03
2023-01-30T21:50:01.320Z,35.47
2023-01-30T21:52:27.981Z,32.13
2023-01-30T21:54:54.760Z,50.23
2023-01-30T21:57:21.449Z,42.10
2023-01-30T21:59:48.139Z,37.83
2023-01-30T22:02:14.837Z,46.83
2023-01-30T22:04:41.550Z,46.80
2023-01-30T22:07:08.337Z,41.53
2023-01-30T22:09:35.044Z,41.80
2023-01-30T22:12:01.750Z,43.20
2023-01-30T22:14:28.567Z,43.30
2023-01-30T22:16:55.256Z,39.90
2023-01-30T22:19:21.888Z,31.83
2023-01-30T22:21:48.586Z,25.80
2023-01-30T22:24:15.392Z,30.50
2023-01-30T22:26:42.320Z,29.57
2023-01-30T22:29:09.444Z,36.93
2023-01-30T22:31:38.726Z,42.07
2023-01-30T22:34:06.485Z,39.57
2023-01-30T22:36:34.830Z,40.83
2023-01-30T22:39:02.712Z,44.13
2023-01-30T22:41:32.527Z,44.73
2023-01-30T22:43:59.919Z,41.37
2023-01-30T22:46:35.234Z,40.17
2023-01-30T22:49:03.971Z,42.57
2023-01-30T22:51:33.126Z,40.03
2023-01-30T22:54:09.191Z,38.63
2023-01-30T22:56:38.605Z,43.50
2023-01-30T22:59:06.706Z,42.13
2023-01-30T23:01:37.090Z,45.17
2023-01-30T23:04:11.546Z,40.13
2023-01-30T23:06:39.264Z,34.40
2023-01-30T23:09:08.476Z,34.57
2023-01-30T23:11:39.188Z,37.03
2023-01-30T23:14:14.453Z,37.57
2023-01-30T23:16:43.702Z,35.37
2023-01-30T23:19:12.637Z,34.77
2023-01-30T23:21:45.395Z,38.23
2023-01-30T23:24:17.000Z,39.20
2023-01-30T23:26:46.323Z,39.93
2023-01-30T23:29:16.223Z,37.93
2023-01-30T23:31:44.577Z,38.17
2023-01-30T23:34:17.719Z,29.53
2023-01-30T23:36:45.271Z,24.47
2023-01-30T23:39:13.578Z,34.10
2023-01-30T23:41:41.526Z,33.57
2023-01-30T23:44:09.086Z,36.53
2023-01-30T23:46:42.395Z,33.57
2023-01-30T23:49:12.124Z,29.93
2023-01-30T23:51:40.903Z,23.53
2023-01-30T23:54:08.798Z,23.53
2023-01-30T23:56:37.969Z,18.83
2023-01-30T23:59:05.380Z,18.37
